createdAt,value
2022-10-23T00:05:39.145Z,13.45
2022-10-23T00:08:29.892Z,11.55
2022-10-23T00:11:18.694Z,9.32
2022-10-23T00:13:56.576Z,9.77
2022-10-23T00:16:35.125Z,10.70
2022-10-23T00:19:26.783Z,6.85
2022-10-23T00:22:17.786Z,10.75
2022-10-23T00:24:50.545Z,7.15
2022-10-23T00:27:28.823Z,4.78
2022-10-23T00:29:58.897Z,5.97
2022-10-23T00:32:45.182Z,7.93
2022-10-23T00:35:15.413Z,3.80
2022-10-23T00:37:46.500Z,6.72
2022-10-23T00:40:25.099Z,5.10
2022-10-23T00:43:01.614Z,6.35
2022-10-23T00:45:41.774Z,5.07
2022-10-23T00:48:20.126Z,3.63
2022-10-23T00:51:04.605Z,7.40
2022-10-23T00:54:01.106Z,4.60
2022-10-23T00:56:52.155Z,4.15
2022-10-23T01:02:24.090Z,12.63
2022-10-23T01:05:24.039Z,8.87
2022-10-23T01:07:57.640Z,12.10
2022-10-23T01:10:49.475Z,6.05
2022-10-23T01:14:15.241Z,11.45
2022-10-23T01:17:09.336Z,14.13
2022-10-23T01:19:53.393Z,10.57
2022-10-23T01:22:45.596Z,10.93
2022-10-23T01:26:23.673Z,12.90
2022-10-23T01:29:23.753Z,18.23
2022-10-23T01:32:03.453Z,4.82
2022-10-23T01:34:57.578Z,10.93
2022-10-23T01:37:49.627Z,7.07
2022-10-23T01:40:48.354Z,11.38
2022-10-23T01:43:37.717Z,9.70
2022-10-23T01:46:19.080Z,7.50
2022-10-23T01:49:12.529Z,12.18
2022-10-23T01:52:17.470Z,11.73
2022-10-23T01:54:58.139Z,9.38
2022-10-23T01:58:03.572Z,17.67
2022-10-23T02:00:44.596Z,10.38
2022-10-23T02:03:28.933Z,8.93
2022-10-23T02:06:29.470Z,12.43
2022-10-23T02:09:07.492Z,20.42
2022-10-23T02:11:54.318Z,12.02
2022-10-23T02:14:56.759Z,7.90
2022-10-23T02:18:03.825Z,18.13
2022-10-23T02:21:05.726Z,9.70
2022-10-23T02:24:11.239Z,8.15
2022-10-23T02:27:06.707Z,9.77
2022-10-23T02:29:49.110Z,13.43
2022-10-23T02:32:21.870Z,13.52
2022-10-23T02:34:51.740Z,10.40
2022-10-23T02:37:30.777Z,14.73
2022-10-23T02:40:07.967Z,10.15
2022-10-23T02:46:46.189Z,17.40
2022-10-23T02:49:31.634Z,5.00
2022-10-23T02:52:25.672Z,5.07
2022-10-23T02:55:19.413Z,10.18
2022-10-23T03:01:03.139Z,9.75
2022-10-23T03:06:47.011Z,10.88
2022-10-23T03:09:20.514Z,28.33
2022-10-23T03:11:48.250Z,12.20
2022-10-23T03:14:26.271Z,11.35
2022-10-23T03:16:59.784Z,14.55
2022-10-23T03:19:34.541Z,13.00
2022-10-23T03:22:33.221Z,13.65
2022-10-23T03:25:22.536Z,14.57
2022-10-23T03:28:12.750Z,14.20
2022-10-23T03:31:03.001Z,18.80
2022-10-23T03:33:37.139Z,16.23
2022-10-23T03:36:14.991Z,7.55
2022-10-23T03:38:58.139Z,10.93
2022-10-23T03:44:36.073Z,7.15
2022-10-23T03:47:11.077Z,17.50
2022-10-23T03:50:00.098Z,13.65
2022-10-23T03:52:35.595Z,6.30
2022-10-23T03:55:10.828Z,7.28
2022-10-23T04:00:39.095Z,5.03
2022-10-23T04:03:13.945Z,4.72
2022-10-23T04:05:52.379Z,9.07
2022-10-23T04:08:38.404Z,7.85
2022-10-23T04:32:23.448Z,6.65
2022-10-23T04:34:53.215Z,9.93
2022-10-23T04:37:22.755Z,11.55
2022-10-23T04:39:52.134Z,8.48
2022-10-23T04:42:19.887Z,8.60
2022-10-23T04:44:47.191Z,8.25
2022-10-23T04:47:14.466Z,6.32
2022-10-23T04:49:41.763Z,12.25
2022-10-23T04:52:09.129Z,8.60
2022-10-23T04:54:37.983Z,11.13
2022-10-23T04:57:08.176Z,6.45
2022-10-23T04:59:35.557Z,8.27
2022-10-23T05:02:05.591Z,7.15
2022-10-23T05:04:37.286Z,9.15
2022-10-23T05:09:31.702Z,6.53
2022-10-23T05:12:01.335Z,19.17
2022-10-23T05:14:28.621Z,7.47
2022-10-23T05:17:04.024Z,13.82
2022-10-23T05:19:39.533Z,8.63
2022-10-23T05:22:07.128Z,6.80
2022-10-23T05:24:34.597Z,13.88
2022-10-23T05:27:01.883Z,8.63
2022-10-23T05:29:29.168Z,11.32
2022-10-23T05:32:01.161Z,6.88
2022-10-23T05:34:33.213Z,19.92
2022-10-23T05:37:03.428Z,7.35
2022-10-23T05:39:30.760Z,12.38
2022-10-23T05:41:57.986Z,23.20
2022-10-23T05:44:27.533Z,8.82
2022-10-23T05:46:54.819Z,30.27
2022-10-23T05:49:25.560Z,43.85
2022-10-23T05:51:53.063Z,17.33
2022-10-23T05:54:20.456Z,10.57
2022-10-23T05:56:47.737Z,10.70
2022-10-23T05:59:19.063Z,7.05
2022-10-23T06:01:49.475Z,16.33
2022-10-23T06:04:16.907Z,7.00
2022-10-23T06:06:46.461Z,7.03
2022-10-23T06:09:17.637Z,10.60
2022-10-23T06:11:47.387Z,13.50
2022-10-23T06:14:14.696Z,10.18
2022-10-23T06:16:41.931Z,10.30
2022-10-23T06:19:15.119Z,11.65
2022-10-23T06:21:44.641Z,18.90
2022-10-23T06:24:12.193Z,17.67
2022-10-23T06:26:39.448Z,13.93
2022-10-23T06:29:11.131Z,11.73
2022-10-23T06:34:06.184Z,25.77
2022-10-23T06:36:37.935Z,21.10
2022-10-23T06:39:08.439Z,19.55
2022-10-23T06:41:39.840Z,15.57
2022-10-23T06:44:07.180Z,17.25
2022-10-23T06:46:38.081Z,19.30
2022-10-23T06:49:07.637Z,12.93
2022-10-23T06:51:37.394Z,13.07
2022-10-23T06:54:04.864Z,32.75
2022-10-23T06:56:35.185Z,103.25
2022-10-23T06:59:02.616Z,63.72
2022-10-23T07:01:30.216Z,31.95
2022-10-23T07:03:59.945Z,15.95
2022-10-23T07:06:29.613Z,11.02
2022-10-23T07:08:59.176Z,6.57
2022-10-23T07:11:26.444Z,14.63
2022-10-23T07:13:53.920Z,6.55
2022-10-23T07:16:24.283Z,11.23
2022-10-23T07:18:59.604Z,7.50
2022-10-23T07:21:35.283Z,7.32
2022-10-23T07:24:06.085Z,18.80
2022-10-23T07:26:33.433Z,11.00
2022-10-23T07:29:02.963Z,9.82
2022-10-23T07:31:30.254Z,11.43
2022-10-23T07:33:57.533Z,13.02
2022-10-23T07:36:25.021Z,7.80
2022-10-23T07:38:54.631Z,10.82
2022-10-23T07:41:21.997Z,8.70
2022-10-23T07:43:51.986Z,11.07
2022-10-23T07:46:19.255Z,6.65
2022-10-23T07:48:46.532Z,6.82
2022-10-23T07:51:16.979Z,7.63
2022-10-23T07:53:47.101Z,10.07
2022-10-23T07:56:14.389Z,6.20
2022-10-23T07:58:42.139Z,6.68
2022-10-23T08:01:21.085Z,6.60
2022-10-23T08:03:48.772Z,6.57
2022-10-23T08:06:16.143Z,6.75
2022-10-23T08:11:17.550Z,7.53
2022-10-23T08:13:44.816Z,6.45
2022-10-23T08:16:12.502Z,6.75
2022-10-23T08:18:41.405Z,6.22
2022-10-23T08:21:08.705Z,6.60
2022-10-23T08:23:35.976Z,9.07
2022-10-23T08:26:07.057Z,9.10
2022-10-23T08:28:34.980Z,7.15
2022-10-23T08:31:16.521Z,7.47
2022-10-23T08:33:46.506Z,9.18
2022-10-23T08:36:22.555Z,7.88
2022-10-23T08:38:52.144Z,8.57
2022-10-23T08:41:37.462Z,9.20
2022-10-23T08:44:22.917Z,8.50
2022-10-23T08:47:31.460Z,8.38
2022-10-23T08:50:27.509Z,9.48
2022-10-23T08:52:54.806Z,6.90
2022-10-23T08:55:24.464Z,11.77
2022-10-23T08:58:02.285Z,14.95
2022-10-23T09:00:30.320Z,10.25
2022-10-23T09:03:00.570Z,9.15
2022-10-23T09:05:34.247Z,9.30
2022-10-23T09:08:11.608Z,8.88
2022-10-23T09:11:03.406Z,7.45
2022-10-23T09:13:55.360Z,7.25
2022-10-23T09:21:57.467Z,7.43
2022-10-23T09:24:28.460Z,9.00
2022-10-23T09:26:55.828Z,9.18
2022-10-23T09:29:36.031Z,8.82
2022-10-23T09:32:06.333Z,9.70
2022-10-23T09:34:37.321Z,10.07
2022-10-23T09:37:22.364Z,8.38
2022-10-23T09:39:49.988Z,9.18
2022-10-23T09:42:25.847Z,10.45
2022-10-23T09:44:55.228Z,9.95
2022-10-23T09:47:24.708Z,8.65
2022-10-23T09:49:55.385Z,7.38
2022-10-23T09:52:35.954Z,11.40
2022-10-23T09:55:19.071Z,10.05
2022-10-23T09:57:47.308Z,8.45
2022-10-23T10:00:15.022Z,9.20
2022-10-23T10:02:56.268Z,8.13
2022-10-23T10:05:25.602Z,7.53
2022-10-23T10:08:22.541Z,9.23
2022-10-23T10:11:00.159Z,10.10
2022-10-23T10:13:36.772Z,23.95
2022-10-23T10:16:24.289Z,28.08
2022-10-23T10:19:06.084Z,14.98
2022-10-23T10:24:09.819Z,8.80
2022-10-23T10:26:51.529Z,9.63
2022-10-23T10:32:01.403Z,8.48
2022-10-23T10:34:46.039Z,8.32
2022-10-23T10:37:45.962Z,7.68
2022-10-23T10:40:24.999Z,6.82
2022-10-23T10:43:16.801Z,8.98
2022-10-23T10:46:03.536Z,7.97
2022-10-23T10:48:53.851Z,7.93
2022-10-23T10:51:50.318Z,7.03
2022-10-23T10:54:38.519Z,7.13
2022-10-23T10:57:27.756Z,7.05
2022-10-23T11:00:02.292Z,12.88
2022-10-23T11:02:35.425Z,63.30
2022-10-23T11:05:14.738Z,13.10
2022-10-23T11:07:56.601Z,8.35
2022-10-23T11:10:24.037Z,8.23
2022-10-23T11:12:52.044Z,6.47
2022-10-23T11:15:26.018Z,6.55
2022-10-23T11:18:03.812Z,6.55
2022-10-23T11:20:38.869Z,6.53
2022-10-23T11:23:29.581Z,5.97
2022-10-23T11:26:05.321Z,6.03
2022-10-23T11:29:13.118Z,6.68
2022-10-23T11:32:03.809Z,7.50
2022-10-23T11:34:49.011Z,6.28
2022-10-23T11:37:18.470Z,6.75
2022-10-23T11:40:24.288Z,5.57
2022-10-23T11:42:52.203Z,5.25
2022-10-23T11:49:21.255Z,5.43
2022-10-23T11:52:00.938Z,4.10
2022-10-23T11:54:34.180Z,5.05
2022-10-23T11:57:10.317Z,4.90
2022-10-23T11:59:52.122Z,4.10
2022-10-23T12:02:32.079Z,4.82
2022-10-23T12:05:10.113Z,4.00
2022-10-23T12:07:39.912Z,3.60
2022-10-23T12:10:34.436Z,3.40
2022-10-23T12:13:26.209Z,3.15
2022-10-23T12:18:44.596Z,7.47
2022-10-23T12:25:15.551Z,2.40
2022-10-23T12:28:27.917Z,2.22
2022-10-23T12:31:11.270Z,2.88
2022-10-23T12:34:04.730Z,3.08
2022-10-23T12:37:09.817Z,2.55
2022-10-23T12:39:39.031Z,2.63
2022-10-23T12:42:22.104Z,2.47
2022-10-23T12:45:19.063Z,2.97
2022-10-23T12:47:48.132Z,2.53
2022-10-23T12:50:22.532Z,2.88
2022-10-23T12:52:57.345Z,2.45
2022-10-23T12:55:26.377Z,3.08
2022-10-23T12:57:55.033Z,4.20
2022-10-23T13:00:24.612Z,2.75
2022-10-23T13:03:03.355Z,3.80
2022-10-23T13:05:32.115Z,2.80
2022-10-23T13:08:01.174Z,3.80
2022-10-23T13:10:30.985Z,5.90
2022-10-23T13:13:06.788Z,2.53
2022-10-23T13:15:48.097Z,3.75
2022-10-23T13:18:16.447Z,3.08
2022-10-23T13:20:58.972Z,3.75
2022-10-23T13:23:26.489Z,2.95
2022-10-23T13:25:59.284Z,4.38
2022-10-23T13:28:35.312Z,3.05
2022-10-23T13:31:04.306Z,3.53
2022-10-23T13:33:43.933Z,2.65
2022-10-23T13:36:14.144Z,3.78
2022-10-23T13:39:03.419Z,3.20
2022-10-23T13:41:42.834Z,4.13
2022-10-23T13:44:16.013Z,3.03
2022-10-23T13:46:43.407Z,3.13
2022-10-23T13:49:10.809Z,2.72
2022-10-23T13:51:50.339Z,2.40
2022-10-23T13:54:25.711Z,2.60
2022-10-23T13:56:56.269Z,2.55
2022-10-23T13:59:26.385Z,2.95
2022-10-23T14:01:56.314Z,2.88
2022-10-23T14:04:23.979Z,2.33
2022-10-23T14:06:58.467Z,5.43
2022-10-23T14:09:25.891Z,3.47
2022-10-23T14:11:53.273Z,2.80
2022-10-23T14:14:20.709Z,2.75
2022-10-23T14:16:47.972Z,2.63
2022-10-23T14:19:15.212Z,3.00
2022-10-23T14:21:44.854Z,3.30
2022-10-23T14:24:12.192Z,3.72
2022-10-23T14:26:39.527Z,3.53
2022-10-23T14:29:09.951Z,2.53
2022-10-23T14:31:38.760Z,2.47
2022-10-23T14:34:06.039Z,2.80
2022-10-23T14:36:43.202Z,3.08
2022-10-23T14:39:20.336Z,2.97
2022-10-23T14:41:47.590Z,2.80
2022-10-23T14:44:14.869Z,5.25
2022-10-23T14:46:42.135Z,4.40
2022-10-23T14:49:11.923Z,2.90
2022-10-23T14:51:39.271Z,3.40
2022-10-23T14:54:07.850Z,3.60
2022-10-23T14:56:42.106Z,5.00
2022-10-23T14:59:10.841Z,3.40
2022-10-23T15:01:45.447Z,4.95
2022-10-23T15:04:15.538Z,3.05
2022-10-23T15:06:43.667Z,4.05
2022-10-23T15:09:11.053Z,4.47
2022-10-23T15:11:38.403Z,4.03
2022-10-23T15:14:08.051Z,3.83
2022-10-23T15:16:41.524Z,3.97
2022-10-23T15:19:13.734Z,3.50
2022-10-23T15:21:45.393Z,3.30
2022-10-23T15:24:12.700Z,4.68
2022-10-23T15:26:43.205Z,3.88
2022-10-23T15:29:11.659Z,4.80
2022-10-23T15:31:40.958Z,6.47
2022-10-23T15:34:14.375Z,6.00
2022-10-23T15:36:42.772Z,4.90
2022-10-23T15:39:11.121Z,4.28
2022-10-23T15:41:40.311Z,6.10
2022-10-23T15:44:09.785Z,6.22
2022-10-23T15:46:39.448Z,4.32
2022-10-23T15:49:09.156Z,3.90
2022-10-23T15:51:39.539Z,4.10
2022-10-23T15:54:08.525Z,5.22
2022-10-23T15:56:36.317Z,4.07
2022-10-23T15:59:04.056Z,4.97
2022-10-23T16:01:31.430Z,4.05
2022-10-23T16:03:58.798Z,4.20
2022-10-23T16:06:26.477Z,3.50
2022-10-23T16:11:32.016Z,5.90
2022-10-23T16:14:03.157Z,5.65
2022-10-23T16:16:36.240Z,4.88
2022-10-23T16:19:06.737Z,4.70
2022-10-23T16:21:36.540Z,9.93
2022-10-23T16:24:07.636Z,10.85
2022-10-23T16:26:35.837Z,16.20
2022-10-23T16:29:05.875Z,18.30
2022-10-23T16:31:35.971Z,16.00
2022-10-23T16:34:04.897Z,13.15
2022-10-23T16:36:32.751Z,16.75
2022-10-23T16:39:02.594Z,13.18
2022-10-23T16:41:29.883Z,14.07
2022-10-23T16:43:57.225Z,11.15
2022-10-23T16:46:24.629Z,10.63
2022-10-23T16:48:54.876Z,8.55
2022-10-23T16:51:30.386Z,7.85
2022-10-23T16:54:00.188Z,8.15
2022-10-23T16:56:29.141Z,6.85
2022-10-23T16:59:00.906Z,17.75
2022-10-23T17:01:31.230Z,16.13
2022-10-23T17:04:01.293Z,14.52
2022-10-23T17:06:31.483Z,26.65
2022-10-23T17:09:01.985Z,32.67
2022-10-23T17:11:32.211Z,20.88
2022-10-23T17:14:04.640Z,35.40
2022-10-23T17:16:57.038Z,27.63
2022-10-23T17:19:44.648Z,20.08
2022-10-23T17:22:13.708Z,18.40
2022-10-23T17:24:44.133Z,12.50
2022-10-23T17:27:13.675Z,11.55
2022-10-23T17:29:46.497Z,10.77
2022-10-23T17:32:16.100Z,9.82
2022-10-23T17:34:43.489Z,13.18
2022-10-23T17:37:13.206Z,10.35
2022-10-23T17:39:41.249Z,30.77
2022-10-23T17:42:08.610Z,29.40
2022-10-23T17:44:38.923Z,22.75
2022-10-23T17:47:06.232Z,21.58
2022-10-23T17:49:33.528Z,60.20
2022-10-23T17:52:01.895Z,50.38
2022-10-23T17:54:29.353Z,44.83
2022-10-23T17:57:01.109Z,28.48
2022-10-23T17:59:28.394Z,28.25
2022-10-23T18:02:00.780Z,24.42
2022-10-23T18:04:28.175Z,27.23
2022-10-23T18:06:55.592Z,25.13
2022-10-23T18:09:28.428Z,21.13
2022-10-23T18:11:55.721Z,16.92
2022-10-23T18:15:39.691Z,18.35
2022-10-23T18:18:07.906Z,18.25
2022-10-23T18:20:40.613Z,12.95
2022-10-23T18:23:08.021Z,12.73
2022-10-23T18:25:43.125Z,14.10
2022-10-23T18:28:10.392Z,12.35
2022-10-23T18:30:42.728Z,12.32
2022-10-23T18:33:16.487Z,12.02
2022-10-23T18:35:46.566Z,10.23
2022-10-23T18:38:14.167Z,21.00
2022-10-23T18:40:43.546Z,25.65
2022-10-23T18:43:15.033Z,18.02
2022-10-23T18:45:47.268Z,15.32
2022-10-23T18:48:14.674Z,16.73
2022-10-23T18:50:44.463Z,13.27
2022-10-23T18:53:14.143Z,13.35
2022-10-23T18:55:51.703Z,12.45
2022-10-23T18:58:19.516Z,10.05
2022-10-23T19:00:49.620Z,11.32
2022-10-23T19:03:21.778Z,10.75
2022-10-23T19:05:51.340Z,10.48
2022-10-23T19:08:21.951Z,8.95
2022-10-23T19:10:54.122Z,8.25
2022-10-23T19:13:21.827Z,9.00
2022-10-23T19:15:49.121Z,10.52
2022-10-23T19:18:18.733Z,9.23
2022-10-23T19:20:46.172Z,12.77
2022-10-23T19:23:15.277Z,11.70
2022-10-23T19:25:47.823Z,10.77
2022-10-23T19:28:17.205Z,9.52
2022-10-23T19:30:46.952Z,10.75
2022-10-23T19:33:14.229Z,9.23
2022-10-23T19:35:43.854Z,8.60
2022-10-23T19:38:13.439Z,12.18
2022-10-23T19:40:40.714Z,8.73
2022-10-23T19:43:08.655Z,7.47
2022-10-23T19:45:38.357Z,9.25
2022-10-23T19:48:09.997Z,9.05
2022-10-23T19:50:40.157Z,7.20
2022-10-23T19:53:07.418Z,8.57
2022-10-23T19:55:37.154Z,7.50
2022-10-23T19:58:07.059Z,9.07
2022-10-23T20:00:36.945Z,6.75
2022-10-23T20:03:06.876Z,8.27
2022-10-23T20:05:39.104Z,7.30
2022-10-23T20:08:06.426Z,8.82
2022-10-23T20:10:33.707Z,7.05
2022-10-23T20:13:18.786Z,7.90
2022-10-23T20:15:48.912Z,6.97
2022-10-23T20:18:16.191Z,7.13
2022-10-23T20:20:43.481Z,7.55
2022-10-23T20:23:10.896Z,9.25
2022-10-23T20:25:38.215Z,7.90
2022-10-23T20:28:06.199Z,7.88
2022-10-23T20:30:41.382Z,9.57
2022-10-23T20:33:11.470Z,7.03
2022-10-23T20:35:45.934Z,7.43
2022-10-23T20:38:15.711Z,7.88
2022-10-23T20:40:43.000Z,7.20
2022-10-23T20:43:10.300Z,6.95
2022-10-23T20:45:37.581Z,7.72
2022-10-23T20:48:09.754Z,7.20
2022-10-23T20:50:37.942Z,6.60
2022-10-23T20:53:07.552Z,7.25
2022-10-23T20:55:40.999Z,7.40
2022-10-23T20:58:08.575Z,6.70
2022-10-23T21:00:38.154Z,6.85
2022-10-23T21:03:05.500Z,7.45
2022-10-23T21:05:33.950Z,7.00
2022-10-23T21:08:03.498Z,7.75
2022-10-23T21:10:31.014Z,7.22
2022-10-23T21:13:00.405Z,7.25
2022-10-23T21:15:28.545Z,7.10
2022-10-23T21:18:04.925Z,7.15
2022-10-23T21:20:43.453Z,6.57
2022-10-23T21:23:13.701Z,7.85
2022-10-23T21:25:43.904Z,7.10
2022-10-23T21:28:11.968Z,7.18
2022-10-23T21:30:39.482Z,6.25
2022-10-23T21:33:09.360Z,6.80
2022-10-23T21:35:43.248Z,6.90
2022-10-23T21:38:19.668Z,6.85
2022-10-23T21:40:49.254Z,6.40
2022-10-23T21:43:16.646Z,6.75
2022-10-23T21:45:46.179Z,6.65
2022-10-23T21:48:13.443Z,6.75
2022-10-23T21:50:40.798Z,6.55
2022-10-23T21:53:12.552Z,5.88
2022-10-23T21:55:42.397Z,6.40
2022-10-23T21:58:10.432Z,5.90
2022-10-23T22:00:38.411Z,6.22
2022-10-23T22:03:08.602Z,5.72
2022-10-23T22:05:38.173Z,6.63
2022-10-23T22:08:05.608Z,6.05
2022-10-23T22:10:35.047Z,6.03
2022-10-23T22:13:04.582Z,6.68
2022-10-23T22:15:31.912Z,5.95
2022-10-23T22:18:01.681Z,6.13
2022-10-23T22:20:28.996Z,6.28
2022-10-23T22:22:58.545Z,5.55
2022-10-23T22:25:28.023Z,6.13
2022-10-23T22:27:55.306Z,6.03
2022-10-23T22:30:22.594Z,5.75
2022-10-23T22:32:52.164Z,6.60
2022-10-23T22:35:19.442Z,6.57
2022-10-23T22:37:48.994Z,8.07
2022-10-23T22:40:18.541Z,6.95
2022-10-23T22:42:46.010Z,5.63
2022-10-23T22:45:13.490Z,6.47
2022-10-23T22:47:42.967Z,6.05
2022-10-23T22:50:10.385Z,6.00
2022-10-23T22:52:37.712Z,7.53
2022-10-23T22:55:10.624Z,6.20
2022-10-23T22:57:40.412Z,6.78
2022-10-23T23:00:10.721Z,6.25
2022-10-23T23:02:38.021Z,7.25
2022-10-23T23:05:12.191Z,6.80
2022-10-23T23:07:44.122Z,6.28
2022-10-23T23:10:13.848Z,6.10
2022-10-23T23:12:41.129Z,6.70
2022-10-23T23:15:11.385Z,6.05
2022-10-23T23:17:38.672Z,5.85
2022-10-23T23:20:10.989Z,6.13
2022-10-23T23:22:40.834Z,7.10
2022-10-23T23:25:09.400Z,6.22
2022-10-23T23:27:40.395Z,6.22
2022-10-23T23:30:09.251Z,6.78
2022-10-23T23:32:36.629Z,6.88
2022-10-23T23:35:04.091Z,7.45
2022-10-23T23:37:31.407Z,6.85
2022-10-23T23:40:00.995Z,6.72
2022-10-23T23:42:33.183Z,7.18
2022-10-23T23:45:13.833Z,7.63
2022-10-23T23:47:44.744Z,7.03
2022-10-23T23:50:13.162Z,7.68
2022-10-23T23:52:40.432Z,6.85
2022-10-23T23:55:08.138Z,7.35
2022-10-23T23:57:35.805Z,8.70
